createdAt,value
2022-12-31T00:00:47.690Z,89.11
2022-12-31T00:01:49.901Z,88.90
2022-12-31T00:02:52.806Z,88.58
2022-12-31T00:03:54.764Z,88.65
2022-12-31T00:04:57.580Z,88.59
2022-12-31T00:05:59.386Z,88.27
2022-12-31T00:07:02.199Z,88.13
2022-12-31T00:08:04.129Z,88.17
2022-12-31T00:09:08.238Z,87.66
2022-12-31T00:10:10.187Z,87.54
2022-12-31T00:11:13.354Z,87.70
2022-12-31T00:12:17.552Z,88.18
2022-12-31T00:13:19.420Z,88.58
2022-12-31T00:14:22.191Z,88.93
2022-12-31T00:15:23.937Z,89.21
2022-12-31T00:16:29.031Z,89.81
2022-12-31T00:17:31.551Z,89.84
2022-12-31T00:18:34.283Z,89.88
2022-12-31T00:19:36.807Z,89.73
2022-12-31T00:20:41.027Z,89.58
2022-12-31T00:21:44.564Z,89.62
2022-12-31T00:22:46.382Z,90.04
2022-12-31T00:23:49.778Z,89.78
2022-12-31T00:24:51.772Z,89.58
2022-12-31T00:25:54.574Z,89.49
2022-12-31T00:26:57.483Z,89.67
2022-12-31T00:28:00.628Z,89.58
2022-12-31T00:29:04.043Z,89.69
2022-12-31T00:30:07.052Z,90.03
2022-12-31T00:31:11.368Z,90.33
2022-12-31T00:32:13.588Z,90.30
2022-12-31T00:33:16.412Z,90.28
2022-12-31T00:34:19.140Z,90.24
2022-12-31T00:35:20.991Z,90.62
2022-12-31T00:36:25.228Z,90.52
2022-12-31T00:37:27.302Z,90.50
2022-12-31T00:38:30.252Z,90.42
2022-12-31T00:39:33.059Z,90.66
2022-12-31T00:40:34.893Z,90.79
2022-12-31T00:41:37.909Z,90.65
2022-12-31T00:42:39.736Z,90.99
2022-12-31T00:43:44.226Z,90.69
2022-12-31T00:44:46.289Z,90.68
2022-12-31T00:45:49.047Z,90.63
2022-12-31T00:46:50.904Z,90.48
2022-12-31T00:47:53.714Z,90.46
2022-12-31T00:48:55.455Z,90.58
2022-12-31T00:49:58.180Z,90.33
2022-12-31T00:51:01.707Z,90.25
2022-12-31T00:52:04.789Z,90.01
2022-12-31T00:53:06.555Z,90.15
2022-12-31T00:54:10.362Z,90.08
2022-12-31T00:55:12.149Z,90.48
2022-12-31T00:56:16.343Z,90.52
2022-12-31T00:57:18.274Z,90.73
2022-12-31T00:58:21.078Z,91.00
2022-12-31T00:59:25.347Z,91.16
2022-12-31T01:00:27.256Z,90.99
2022-12-31T01:01:31.717Z,90.69
2022-12-31T01:02:33.785Z,90.56
2022-12-31T01:03:36.803Z,90.67
2022-12-31T01:04:38.669Z,90.70
2022-12-31T01:05:41.396Z,90.78
2022-12-31T01:06:43.795Z,90.64
2022-12-31T01:07:46.558Z,90.51
2022-12-31T01:08:49.467Z,90.35
2022-12-31T01:09:54.085Z,90.52
2022-12-31T01:11:14.356Z,90.50
2022-12-31T01:12:17.079Z,90.81
2022-12-31T01:13:18.952Z,90.88
2022-12-31T01:14:21.757Z,90.93
2022-12-31T01:15:24.983Z,90.62
2022-12-31T01:16:29.991Z,90.91
2022-12-31T01:17:31.859Z,90.99
2022-12-31T01:18:34.621Z,90.87
2022-12-31T01:19:37.393Z,90.90
2022-12-31T01:20:41.304Z,91.00
2022-12-31T01:21:45.350Z,90.85
2022-12-31T01:22:47.235Z,91.02
2022-12-31T01:23:49.982Z,90.87
2022-12-31T01:24:51.778Z,90.75
2022-12-31T01:25:54.588Z,90.82
2022-12-31T01:26:58.871Z,91.06
2022-12-31T01:28:01.000Z,91.12
2022-12-31T01:29:04.133Z,91.10
2022-12-31T01:30:06.920Z,91.28
2022-12-31T01:31:12.968Z,91.22
2022-12-31T01:32:14.904Z,91.35
2022-12-31T01:33:17.645Z,91.27
2022-12-31T01:34:20.386Z,91.38
2022-12-31T01:35:22.613Z,91.57
2022-12-31T01:36:27.490Z,91.54
2022-12-31T01:37:29.622Z,91.66
2022-12-31T01:38:33.122Z,91.89
2022-12-31T01:39:35.876Z,91.81
2022-12-31T01:40:38.640Z,92.15
2022-12-31T01:41:44.299Z,92.25
2022-12-31T01:42:53.232Z,92.26
2022-12-31T01:43:58.604Z,92.37
2022-12-31T01:45:01.005Z,92.38
2022-12-31T01:46:03.821Z,92.55
2022-12-31T01:47:12.774Z,92.41
2022-12-31T01:48:18.564Z,92.77
2022-12-31T01:49:22.128Z,92.96
2022-12-31T01:50:27.567Z,92.71
2022-12-31T01:51:31.892Z,92.71
2022-12-31T01:52:37.714Z,92.67
2022-12-31T01:53:40.977Z,92.80
2022-12-31T01:54:46.013Z,92.51
2022-12-31T01:55:50.423Z,92.46
2022-12-31T01:56:54.987Z,92.48
2022-12-31T01:57:59.533Z,92.17
2022-12-31T01:59:02.442Z,92.39
2022-12-31T02:00:06.301Z,92.52
2022-12-31T02:01:10.507Z,92.44
2022-12-31T02:02:14.703Z,92.82
2022-12-31T02:03:17.602Z,92.95
2022-12-31T02:04:21.735Z,92.75
2022-12-31T02:05:28.279Z,92.61
2022-12-31T02:06:34.351Z,92.44
2022-12-31T02:07:37.154Z,92.49
2022-12-31T02:08:42.115Z,92.61
2022-12-31T02:09:45.523Z,92.55
2022-12-31T02:10:47.446Z,92.53
2022-12-31T02:11:50.226Z,92.87
2022-12-31T02:12:52.518Z,92.79
2022-12-31T02:13:58.631Z,92.44
2022-12-31T02:15:00.657Z,92.69
2022-12-31T02:16:08.021Z,92.16
2022-12-31T02:17:14.734Z,92.27
2022-12-31T02:18:25.889Z,92.09
2022-12-31T02:20:02.386Z,91.76
2022-12-31T02:21:23.397Z,91.83
2022-12-31T02:22:36.843Z,92.22
2022-12-31T02:24:07.323Z,92.16
2022-12-31T02:25:31.829Z,92.86
2022-12-31T02:26:57.294Z,92.74
2022-12-31T02:28:07.021Z,92.62
2022-12-31T02:29:57.520Z,92.82
2022-12-31T02:31:02.243Z,93.06
2022-12-31T02:32:06.505Z,92.79
2022-12-31T02:33:13.939Z,92.92
2022-12-31T02:34:19.568Z,92.77
2022-12-31T02:35:26.706Z,92.89
2022-12-31T02:36:31.979Z,93.02
2022-12-31T02:37:36.867Z,93.01
2022-12-31T02:38:41.328Z,93.12
2022-12-31T02:39:44.501Z,92.94
2022-12-31T02:40:47.736Z,92.95
2022-12-31T02:41:51.694Z,92.90
2022-12-31T02:42:55.581Z,93.06
2022-12-31T02:43:58.646Z,93.39
2022-12-31T02:45:00.479Z,93.81
2022-12-31T02:46:10.262Z,94.43
2022-12-31T02:47:21.180Z,94.37
2022-12-31T02:48:36.682Z,94.19
2022-12-31T02:49:45.285Z,94.46
2022-12-31T02:50:56.300Z,94.35
2022-12-31T02:52:01.616Z,94.58
2022-12-31T02:53:17.459Z,94.10
2022-12-31T02:54:28.238Z,94.11
2022-12-31T02:55:36.082Z,94.55
2022-12-31T02:56:41.859Z,94.28
2022-12-31T02:57:49.715Z,94.24
2022-12-31T02:59:25.938Z,94.03
2022-12-31T03:00:48.137Z,94.02
2022-12-31T03:02:14.103Z,93.81
2022-12-31T03:03:17.125Z,94.59
2022-12-31T03:04:34.745Z,94.70
2022-12-31T03:05:40.313Z,94.67
2022-12-31T03:06:42.301Z,94.34
2022-12-31T03:07:45.792Z,94.32
2022-12-31T03:09:14.711Z,94.47
2022-12-31T03:10:18.100Z,95.11
2022-12-31T03:11:35.309Z,95.22
2022-12-31T03:12:47.040Z,95.50
2022-12-31T03:13:49.032Z,94.96
2022-12-31T03:14:52.256Z,94.61
2022-12-31T03:15:55.005Z,94.69
2022-12-31T03:16:58.328Z,94.05
2022-12-31T03:18:04.347Z,93.55
2022-12-31T03:19:24.590Z,93.58
2022-12-31T03:20:48.226Z,93.51
2022-12-31T03:22:08.523Z,93.04
2022-12-31T03:23:12.914Z,93.42
2022-12-31T03:24:33.307Z,93.07
2022-12-31T03:25:35.691Z,93.13
2022-12-31T03:26:37.754Z,93.69
2022-12-31T03:27:40.716Z,93.98
2022-12-31T03:28:47.675Z,94.20
2022-12-31T03:29:49.762Z,93.68
2022-12-31T03:30:54.209Z,94.02
2022-12-31T03:31:56.026Z,94.00
2022-12-31T03:33:00.360Z,94.22
2022-12-31T03:34:02.178Z,94.61
2022-12-31T03:35:05.731Z,94.64
2022-12-31T03:36:10.696Z,94.85
2022-12-31T03:37:12.441Z,94.67
2022-12-31T03:38:15.710Z,94.97
2022-12-31T03:39:17.870Z,95.10
2022-12-31T03:40:22.699Z,94.79
2022-12-31T03:41:25.647Z,94.98
2022-12-31T03:42:28.890Z,94.44
2022-12-31T03:43:31.605Z,94.99
2022-12-31T03:44:33.434Z,94.80
2022-12-31T03:45:36.277Z,94.59
2022-12-31T03:46:38.193Z,94.58
2022-12-31T03:47:41.298Z,94.53
2022-12-31T03:48:44.416Z,94.37
2022-12-31T03:49:47.165Z,94.50
2022-12-31T03:50:50.390Z,94.71
2022-12-31T03:51:52.144Z,94.75
2022-12-31T03:52:55.001Z,94.90
2022-12-31T03:53:56.815Z,94.65
2022-12-31T03:54:59.549Z,94.76
2022-12-31T03:56:01.337Z,94.99
2022-12-31T03:57:04.300Z,95.72
2022-12-31T03:58:07.312Z,96.30
2022-12-31T03:59:09.149Z,97.04
2022-12-31T04:00:14.787Z,96.81
2022-12-31T04:01:16.806Z,96.72
2022-12-31T04:02:24.715Z,96.30
2022-12-31T04:03:30.997Z,96.52
2022-12-31T04:04:34.137Z,96.42
2022-12-31T04:05:36.901Z,95.87
2022-12-31T04:06:38.976Z,96.27
2022-12-31T04:07:42.373Z,96.20
2022-12-31T04:08:44.140Z,96.48
2022-12-31T04:09:46.936Z,96.51
2022-12-31T04:10:49.694Z,96.40
2022-12-31T04:11:51.486Z,96.09
2022-12-31T04:12:54.730Z,96.39
2022-12-31T04:13:59.177Z,96.30
2022-12-31T04:15:01.922Z,96.25
2022-12-31T04:16:03.919Z,96.57
2022-12-31T04:17:07.608Z,96.54
2022-12-31T04:18:09.399Z,96.99
2022-12-31T04:19:12.338Z,97.00
2022-12-31T04:20:17.165Z,97.01
2022-12-31T04:21:18.967Z,97.30
2022-12-31T04:22:21.888Z,97.28
2022-12-31T04:23:23.691Z,97.55
2022-12-31T04:24:26.883Z,97.53
2022-12-31T04:25:29.392Z,97.97
2022-12-31T04:26:34.131Z,98.08
2022-12-31T04:27:36.011Z,98.12
2022-12-31T04:28:38.925Z,98.23
2022-12-31T04:29:40.782Z,98.09
2022-12-31T04:30:46.167Z,98.23
2022-12-31T04:31:47.991Z,98.53
2022-12-31T04:32:50.810Z,98.67
2022-12-31T04:33:52.605Z,98.34
2022-12-31T04:34:56.308Z,98.48
2022-12-31T04:36:02.022Z,98.45
2022-12-31T04:37:05.344Z,98.74
2022-12-31T04:38:07.541Z,98.65
2022-12-31T04:39:10.287Z,98.65
2022-12-31T04:40:12.445Z,99.01
2022-12-31T04:41:17.896Z,98.41
2022-12-31T04:42:20.715Z,98.53
2022-12-31T04:43:22.881Z,98.50
2022-12-31T04:44:29.489Z,98.55
2022-12-31T04:45:31.373Z,98.25
2022-12-31T04:46:34.968Z,98.22
2022-12-31T04:47:37.202Z,98.43
2022-12-31T04:48:40.015Z,98.57
2022-12-31T04:49:44.292Z,98.66
2022-12-31T04:50:46.394Z,98.97
2022-12-31T04:51:50.497Z,98.57
2022-12-31T04:52:52.247Z,98.47
2022-12-31T04:53:55.652Z,98.21
2022-12-31T04:54:57.602Z,98.36
2022-12-31T04:56:00.360Z,98.32
2022-12-31T04:57:21.390Z,98.46
2022-12-31T04:58:23.508Z,98.65
2022-12-31T04:59:26.486Z,98.78
2022-12-31T05:00:28.296Z,98.83
2022-12-31T05:01:31.240Z,99.09
2022-12-31T05:02:33.245Z,98.84
2022-12-31T05:03:36.656Z,98.97
2022-12-31T05:04:38.544Z,98.96
2022-12-31T05:05:42.810Z,99.47
2022-12-31T05:06:45.537Z,99.12
2022-12-31T05:07:48.703Z,99.25
2022-12-31T05:08:51.471Z,99.25
2022-12-31T05:09:53.280Z,99.05
2022-12-31T05:10:56.536Z,99.99
2022-12-31T05:11:58.315Z,99.51
2022-12-31T05:13:01.023Z,99.75
2022-12-31T05:14:04.208Z,99.35
2022-12-31T05:15:07.596Z,99.01
2022-12-31T05:16:10.829Z,99.35
2022-12-31T05:17:12.942Z,99.37
2022-12-31T05:18:16.007Z,99.50
2022-12-31T05:19:18.027Z,99.77
2022-12-31T05:20:20.886Z,99.58
2022-12-31T05:21:23.700Z,99.33
2022-12-31T05:22:31.713Z,99.71
2022-12-31T05:23:36.423Z,99.54
2022-12-31T05:24:38.246Z,99.42
2022-12-31T05:25:41.289Z,99.82
2022-12-31T05:26:43.061Z,99.79
2022-12-31T05:27:45.955Z,100.00
2022-12-31T05:28:49.054Z,99.85
2022-12-31T05:29:50.961Z,99.93
2022-12-31T05:30:53.825Z,99.65
2022-12-31T05:31:55.649Z,99.71
2022-12-31T05:32:58.473Z,99.44
2022-12-31T05:34:01.394Z,99.56
2022-12-31T05:35:04.061Z,99.43
2022-12-31T05:36:07.350Z,99.62
2022-12-31T05:37:09.303Z,99.43
2022-12-31T05:38:12.269Z,99.82
2022-12-31T05:39:15.951Z,99.46
2022-12-31T05:40:18.749Z,99.72
2022-12-31T05:41:21.495Z,99.70
2022-12-31T05:42:23.503Z,100.00
2022-12-31T05:43:26.333Z,100.00
2022-12-31T05:44:28.268Z,100.00
2022-12-31T05:45:31.518Z,100.00
2022-12-31T05:46:33.437Z,100.00
2022-12-31T05:47:36.197Z,100.00
2022-12-31T05:48:39.025Z,100.00
2022-12-31T05:49:40.879Z,100.00
2022-12-31T05:50:43.622Z,99.67
2022-12-31T05:52:04.049Z,99.62
2022-12-31T05:53:06.785Z,99.73
2022-12-31T05:54:08.551Z,99.09
2022-12-31T05:55:14.414Z,99.09
2022-12-31T05:56:17.843Z,98.70
2022-12-31T05:57:20.572Z,98.76
2022-12-31T05:58:22.433Z,98.86
2022-12-31T05:59:25.297Z,99.06
2022-12-31T06:00:28.247Z,99.11
2022-12-31T06:01:31.101Z,99.21
2022-12-31T06:02:33.254Z,99.68
2022-12-31T06:03:36.088Z,99.67
2022-12-31T06:04:37.885Z,99.98
2022-12-31T06:05:42.002Z,100.00
2022-12-31T06:06:43.759Z,99.62
2022-12-31T06:07:47.436Z,99.71
2022-12-31T06:08:49.637Z,99.95
2022-12-31T06:09:52.468Z,99.56
2022-12-31T06:10:55.680Z,99.40
2022-12-31T06:11:58.467Z,99.44
2022-12-31T06:13:01.199Z,99.52
2022-12-31T06:14:03.015Z,99.58
2022-12-31T06:15:07.023Z,99.55
2022-12-31T06:16:12.239Z,99.28
2022-12-31T06:17:15.295Z,99.72
2022-12-31T06:18:18.291Z,100.00
2022-12-31T06:19:20.075Z,99.75
2022-12-31T06:20:23.349Z,100.00
2022-12-31T06:21:25.587Z,100.00
2022-12-31T06:22:28.308Z,100.00
2022-12-31T06:23:30.204Z,100.00
2022-12-31T06:24:33.180Z,100.00
2022-12-31T06:25:37.013Z,100.00
2022-12-31T06:26:40.118Z,100.00
2022-12-31T06:27:43.419Z,100.00
2022-12-31T06:28:45.244Z,100.00
2022-12-31T06:29:51.018Z,100.00
2022-12-31T06:30:59.482Z,100.00
2022-12-31T06:32:02.258Z,100.00
2022-12-31T06:33:04.151Z,100.00
2022-12-31T06:34:07.345Z,100.00
2022-12-31T06:35:09.501Z,100.00
2022-12-31T06:36:14.733Z,100.00
2022-12-31T06:37:17.194Z,100.00
2022-12-31T06:38:19.961Z,99.83
2022-12-31T06:39:21.754Z,99.76
2022-12-31T06:40:24.663Z,100.00
2022-12-31T06:41:26.474Z,99.78
2022-12-31T06:42:31.812Z,99.97
2022-12-31T06:43:34.689Z,99.46
2022-12-31T06:44:37.409Z,99.21
2022-12-31T06:45:39.635Z,98.85
2022-12-31T06:46:42.457Z,98.66
2022-12-31T06:47:44.310Z,98.17
2022-12-31T06:48:47.118Z,97.89
2022-12-31T06:49:50.183Z,98.24
2022-12-31T06:50:52.061Z,97.93
2022-12-31T06:51:54.787Z,98.43
2022-12-31T06:52:56.663Z,97.77
2022-12-31T06:53:59.827Z,97.47
2022-12-31T06:55:03.143Z,97.33
2022-12-31T06:56:06.387Z,96.74
2022-12-31T06:57:10.083Z,96.90
2022-12-31T06:58:14.248Z,96.94
2022-12-31T06:59:26.227Z,96.80
2022-12-31T07:00:28.801Z,96.86
2022-12-31T07:01:50.797Z,97.15
2022-12-31T07:03:16.907Z,97.34
2022-12-31T07:04:56.085Z,97.41
2022-12-31T07:06:03.042Z,97.55
2022-12-31T07:07:08.015Z,97.60
2022-12-31T07:08:19.434Z,97.88
2022-12-31T07:09:25.879Z,98.19
2022-12-31T07:10:38.516Z,98.32
2022-12-31T07:11:46.583Z,98.73
2022-12-31T07:13:03.013Z,98.81
2022-12-31T07:14:15.046Z,99.23
2022-12-31T07:15:20.212Z,99.23
2022-12-31T07:16:33.821Z,99.49
2022-12-31T07:17:43.232Z,99.74
2022-12-31T07:18:49.068Z,99.57
2022-12-31T07:19:58.985Z,99.70
2022-12-31T07:21:01.372Z,99.84
2022-12-31T07:22:04.698Z,99.88
2022-12-31T07:23:07.969Z,100.00
2022-12-31T07:24:12.810Z,100.00
2022-12-31T07:25:15.964Z,100.00
2022-12-31T07:26:22.371Z,100.00
2022-12-31T07:27:44.625Z,100.00
2022-12-31T07:28:54.623Z,100.00
2022-12-31T07:30:03.863Z,100.00
2022-12-31T07:31:09.123Z,100.00
2022-12-31T07:32:18.938Z,100.00
2022-12-31T07:33:36.040Z,100.00
2022-12-31T07:34:42.345Z,100.00
2022-12-31T07:35:51.196Z,100.00
2022-12-31T07:37:00.955Z,100.00
2022-12-31T07:38:09.225Z,100.00
2022-12-31T07:39:14.539Z,100.00
2022-12-31T07:40:22.150Z,100.00
2022-12-31T07:41:37.816Z,100.00
2022-12-31T07:42:58.221Z,100.00
2022-12-31T07:44:04.626Z,100.00
2022-12-31T07:45:14.829Z,100.00
2022-12-31T07:46:21.425Z,100.00
2022-12-31T07:47:25.903Z,100.00
2022-12-31T07:48:29.405Z,100.00
2022-12-31T07:49:33.564Z,100.00
2022-12-31T07:50:37.512Z,100.00
2022-12-31T07:51:41.283Z,100.00
2022-12-31T07:52:43.708Z,100.00
2022-12-31T07:53:46.867Z,100.00
2022-12-31T07:54:48.739Z,100.00
2022-12-31T07:55:55.850Z,100.00
2022-12-31T07:56:58.829Z,100.00
2022-12-31T07:58:04.939Z,99.60
2022-12-31T07:59:18.436Z,99.58
2022-12-31T08:00:26.434Z,99.44
2022-12-31T08:01:42.430Z,99.99
2022-12-31T08:03:04.962Z,99.67
2022-12-31T08:04:10.419Z,100.00
2022-12-31T08:05:19.824Z,100.00
2022-12-31T08:06:29.330Z,100.00
2022-12-31T08:07:35.983Z,99.91
2022-12-31T08:08:51.300Z,99.93
2022-12-31T08:10:05.110Z,99.55
2022-12-31T08:11:14.862Z,98.77
2022-12-31T08:12:19.034Z,98.18
2022-12-31T08:13:21.007Z,98.28
2022-12-31T08:14:24.935Z,98.67
2022-12-31T08:15:30.692Z,98.15
2022-12-31T08:16:34.195Z,98.55
2022-12-31T08:17:36.305Z,99.12
2022-12-31T08:18:39.736Z,99.43
2022-12-31T08:19:43.047Z,99.66
2022-12-31T08:20:52.694Z,99.91
2022-12-31T08:22:05.427Z,99.88
2022-12-31T08:23:20.398Z,100.00
2022-12-31T08:24:27.650Z,99.92
2022-12-31T08:25:37.270Z,99.79
2022-12-31T08:26:52.837Z,99.96
2022-12-31T08:28:03.735Z,99.65
2022-12-31T08:29:16.490Z,99.85
2022-12-31T08:30:20.122Z,99.80
2022-12-31T08:31:49.662Z,99.73
2022-12-31T08:33:10.170Z,99.62
2022-12-31T08:34:17.713Z,99.64
2022-12-31T08:35:33.001Z,99.25
2022-12-31T08:36:45.674Z,98.66
2022-12-31T08:37:52.637Z,98.24
2022-12-31T08:38:57.297Z,97.93
2022-12-31T08:40:11.536Z,98.16
2022-12-31T08:41:18.888Z,98.00
2022-12-31T08:42:28.868Z,98.00
2022-12-31T08:43:39.814Z,98.24
2022-12-31T08:44:49.415Z,98.29
2022-12-31T08:45:52.416Z,98.20
2022-12-31T08:47:01.221Z,98.42
2022-12-31T08:48:05.394Z,98.32
2022-12-31T08:49:09.880Z,98.37
2022-12-31T08:50:14.669Z,98.21
2022-12-31T08:51:20.689Z,97.30
2022-12-31T08:52:25.129Z,97.33
2022-12-31T08:53:28.332Z,96.67
2022-12-31T08:54:31.772Z,96.38
2022-12-31T08:55:34.399Z,95.37
2022-12-31T08:56:48.845Z,95.16
2022-12-31T08:57:59.129Z,94.47
2022-12-31T08:59:13.620Z,95.23
2022-12-31T09:00:18.267Z,94.68
2022-12-31T09:01:24.353Z,94.93
2022-12-31T09:02:49.384Z,94.54
2022-12-31T09:04:02.544Z,95.26
2022-12-31T09:05:10.938Z,94.99
2022-12-31T09:06:20.257Z,95.05
2022-12-31T09:07:31.000Z,94.84
2022-12-31T09:08:39.779Z,94.31
2022-12-31T09:09:49.303Z,94.45
2022-12-31T09:10:55.244Z,94.63
2022-12-31T09:11:59.856Z,94.34
2022-12-31T09:13:07.698Z,94.59
2022-12-31T09:14:19.764Z,93.96
2022-12-31T09:15:27.231Z,94.42
2022-12-31T09:16:35.053Z,94.26
2022-12-31T09:17:46.054Z,93.77
2022-12-31T09:18:48.879Z,93.50
2022-12-31T09:19:51.063Z,92.09
2022-12-31T09:20:54.524Z,92.49
2022-12-31T09:21:57.691Z,92.44
2022-12-31T09:23:03.173Z,92.01
2022-12-31T09:24:09.542Z,92.21
2022-12-31T09:25:15.702Z,92.22
2022-12-31T09:26:33.301Z,91.90
2022-12-31T09:27:40.072Z,90.68
2022-12-31T09:28:50.631Z,90.54
2022-12-31T09:29:56.239Z,91.11
2022-12-31T09:31:05.767Z,91.91
2022-12-31T09:32:14.369Z,91.11
2022-12-31T09:33:30.958Z,90.03
2022-12-31T09:34:37.418Z,89.55
2022-12-31T09:35:45.255Z,89.44
2022-12-31T09:36:52.177Z,89.66
2022-12-31T09:37:58.171Z,90.23
2022-12-31T09:39:06.377Z,90.19
2022-12-31T09:40:24.635Z,89.77
2022-12-31T09:41:43.109Z,88.84
2022-12-31T09:42:59.471Z,88.13
2022-12-31T09:44:41.073Z,88.46
2022-12-31T09:46:26.010Z,86.19
2022-12-31T09:48:10.220Z,86.98
2022-12-31T09:49:41.765Z,85.15
2022-12-31T09:51:08.465Z,85.57
2022-12-31T09:52:16.377Z,86.63
2022-12-31T09:53:40.735Z,84.76
2022-12-31T09:54:53.893Z,84.63
2022-12-31T09:55:59.436Z,85.70
2022-12-31T09:57:19.168Z,85.47
2022-12-31T09:58:34.702Z,85.32
2022-12-31T09:59:42.035Z,85.52
2022-12-31T10:00:49.489Z,86.44
2022-12-31T10:01:58.127Z,84.13
2022-12-31T10:03:20.287Z,84.28
2022-12-31T10:04:47.806Z,85.34
2022-12-31T10:05:59.796Z,84.55
2022-12-31T10:07:13.365Z,83.83
2022-12-31T10:08:31.010Z,84.20
2022-12-31T10:09:43.829Z,84.58
2022-12-31T10:10:50.939Z,85.07
2022-12-31T10:12:04.783Z,84.93
2022-12-31T10:13:28.036Z,84.75
2022-12-31T10:14:47.114Z,83.62
2022-12-31T10:16:09.835Z,82.75
2022-12-31T10:17:22.546Z,84.26
2022-12-31T10:18:56.972Z,84.84
2022-12-31T10:20:33.729Z,83.53
2022-12-31T10:21:47.617Z,84.85
2022-12-31T10:23:35.627Z,84.85
2022-12-31T10:24:57.619Z,83.37
2022-12-31T10:26:11.857Z,85.30
2022-12-31T10:27:35.570Z,85.15
2022-12-31T10:28:45.220Z,85.46
2022-12-31T10:29:54.858Z,85.30
2022-12-31T10:31:06.623Z,83.66
2022-12-31T10:32:17.773Z,83.29
2022-12-31T10:33:34.013Z,84.99
2022-12-31T10:34:48.784Z,84.74
2022-12-31T10:35:55.771Z,84.19
2022-12-31T10:37:05.702Z,82.84
2022-12-31T10:38:19.428Z,83.58
2022-12-31T10:39:32.342Z,84.04
2022-12-31T10:40:52.861Z,82.77
2022-12-31T10:42:12.082Z,82.57
2022-12-31T10:43:44.077Z,83.09
2022-12-31T10:45:05.938Z,83.30
2022-12-31T10:46:29.010Z,83.68
2022-12-31T10:48:00.575Z,83.55
2022-12-31T10:49:28.580Z,83.77
2022-12-31T10:50:50.183Z,82.97
2022-12-31T10:52:28.425Z,83.71
2022-12-31T10:54:15.769Z,83.38
2022-12-31T10:55:40.759Z,82.83
2022-12-31T10:57:16.881Z,82.77
2022-12-31T10:58:58.119Z,83.46
2022-12-31T11:00:17.183Z,83.58
2022-12-31T11:01:20.557Z,83.94
2022-12-31T11:02:55.791Z,84.08
2022-12-31T11:04:34.575Z,83.47
2022-12-31T11:06:09.901Z,82.53
2022-12-31T11:07:36.610Z,83.16
2022-12-31T11:09:17.810Z,82.04
2022-12-31T11:10:48.764Z,83.71
2022-12-31T11:11:54.749Z,83.72
2022-12-31T11:13:16.598Z,83.00
2022-12-31T11:14:43.743Z,82.47
2022-12-31T11:16:02.830Z,82.44
2022-12-31T11:17:24.423Z,83.13
2022-12-31T11:18:31.788Z,83.39
2022-12-31T11:19:38.432Z,82.89
2022-12-31T11:20:55.911Z,82.30
2022-12-31T11:22:21.643Z,82.34
2022-12-31T11:23:35.047Z,83.00
2022-12-31T11:24:48.262Z,82.59
2022-12-31T11:25:57.904Z,82.94
2022-12-31T11:27:11.843Z,82.98
2022-12-31T11:28:42.534Z,81.96
2022-12-31T11:29:57.848Z,82.29
2022-12-31T11:31:13.467Z,81.89
2022-12-31T11:32:27.329Z,81.81
2022-12-31T11:33:39.237Z,82.01
2022-12-31T11:35:14.933Z,81.21
2022-12-31T11:36:21.475Z,82.05
2022-12-31T11:37:34.793Z,81.94
2022-12-31T11:38:39.800Z,81.72
2022-12-31T11:39:50.027Z,82.07
2022-12-31T11:41:00.133Z,82.23
2022-12-31T11:42:07.927Z,82.94
2022-12-31T11:43:23.482Z,82.47
2022-12-31T11:44:35.576Z,81.63
2022-12-31T11:45:55.615Z,81.64
2022-12-31T11:47:08.912Z,82.01
2022-12-31T11:48:32.831Z,81.98
2022-12-31T11:49:50.273Z,81.33
2022-12-31T11:50:58.998Z,81.50
2022-12-31T11:52:31.864Z,80.63
2022-12-31T11:54:04.229Z,80.71
2022-12-31T11:55:28.605Z,80.78
2022-12-31T11:56:35.047Z,81.22
2022-12-31T11:57:39.865Z,80.67
2022-12-31T11:58:47.243Z,80.80
2022-12-31T11:59:50.512Z,80.95
2022-12-31T12:00:56.148Z,80.74
2022-12-31T12:02:03.230Z,80.44
2022-12-31T12:03:08.122Z,79.98
2022-12-31T12:04:12.157Z,80.54
2022-12-31T12:05:16.031Z,80.01
2022-12-31T12:06:22.169Z,79.64
2022-12-31T12:07:24.236Z,79.96
2022-12-31T12:08:27.526Z,79.97
2022-12-31T12:09:32.585Z,79.83
2022-12-31T12:10:43.710Z,79.84
2022-12-31T12:11:46.442Z,79.49
2022-12-31T12:12:49.229Z,79.48
2022-12-31T12:13:52.298Z,79.33
2022-12-31T12:14:55.619Z,79.48
2022-12-31T12:15:59.863Z,79.42
2022-12-31T12:17:05.482Z,79.56
2022-12-31T12:18:10.524Z,79.15
2022-12-31T12:19:18.846Z,78.92
2022-12-31T12:20:26.797Z,78.82
2022-12-31T12:21:30.090Z,78.97
2022-12-31T12:22:32.647Z,78.63
2022-12-31T12:23:35.401Z,78.54
2022-12-31T12:24:37.544Z,78.52
2022-12-31T12:25:44.679Z,78.80
2022-12-31T12:26:49.724Z,78.64
2022-12-31T12:27:52.872Z,78.78
2022-12-31T12:28:54.666Z,78.69
2022-12-31T12:29:57.603Z,78.14
2022-12-31T12:31:02.235Z,78.13
2022-12-31T12:32:08.167Z,78.35
2022-12-31T12:33:16.827Z,77.93
2022-12-31T12:34:24.844Z,78.30
2022-12-31T12:35:30.445Z,78.18
2022-12-31T12:36:32.965Z,78.17
2022-12-31T12:37:36.972Z,77.67
2022-12-31T12:38:39.812Z,78.43
2022-12-31T12:39:42.575Z,78.29
2022-12-31T12:40:57.370Z,78.68
2022-12-31T12:42:02.305Z,78.92
2022-12-31T12:43:05.159Z,78.88
2022-12-31T12:44:09.329Z,78.14
2022-12-31T12:45:16.374Z,78.55
2022-12-31T12:46:22.329Z,78.95
2022-12-31T12:47:26.976Z,78.64
2022-12-31T12:48:37.934Z,78.73
2022-12-31T12:49:42.795Z,78.55
2022-12-31T12:50:47.123Z,78.65
2022-12-31T12:52:04.431Z,78.44
2022-12-31T12:53:27.712Z,78.51
2022-12-31T12:54:37.832Z,78.44
2022-12-31T12:55:43.453Z,78.79
2022-12-31T12:56:53.366Z,78.24
2022-12-31T12:58:01.160Z,78.50
2022-12-31T12:59:27.646Z,78.60
2022-12-31T13:00:34.999Z,78.57
2022-12-31T13:01:42.066Z,78.48
2022-12-31T13:02:56.099Z,78.75
2022-12-31T13:04:34.635Z,78.02
2022-12-31T13:05:48.089Z,78.59
2022-12-31T13:07:11.707Z,78.26
2022-12-31T13:08:25.247Z,79.00
2022-12-31T13:09:40.219Z,78.50
2022-12-31T13:11:02.397Z,78.05
2022-12-31T13:12:15.392Z,78.01
2022-12-31T13:13:25.200Z,78.39
2022-12-31T13:14:31.361Z,78.38
2022-12-31T13:15:38.972Z,78.53
2022-12-31T13:16:43.685Z,78.10
2022-12-31T13:18:01.280Z,78.28
2022-12-31T13:19:09.103Z,77.93
2022-12-31T13:20:16.403Z,78.17
2022-12-31T13:21:36.131Z,78.33
2022-12-31T13:22:41.604Z,78.30
2022-12-31T13:23:48.940Z,77.88
2022-12-31T13:24:58.724Z,78.19
2022-12-31T13:26:06.809Z,78.44
2022-12-31T13:27:14.297Z,78.33
2022-12-31T13:28:17.718Z,78.12
2022-12-31T13:29:23.471Z,78.90
2022-12-31T13:30:29.558Z,78.67
2022-12-31T13:31:35.214Z,78.14
2022-12-31T13:32:40.678Z,77.99
2022-12-31T13:33:44.615Z,78.59
2022-12-31T13:34:49.545Z,78.04
2022-12-31T13:35:53.443Z,78.35
2022-12-31T13:36:58.129Z,78.04
2022-12-31T13:38:05.848Z,77.17
2022-12-31T13:39:14.005Z,77.91
2022-12-31T13:40:19.820Z,78.46
2022-12-31T13:41:25.219Z,78.13
2022-12-31T13:42:35.659Z,78.00
2022-12-31T13:43:47.238Z,78.27
2022-12-31T13:44:56.454Z,77.90
2022-12-31T13:46:04.515Z,77.74
2022-12-31T13:47:12.760Z,77.79
2022-12-31T13:48:18.333Z,77.79
2022-12-31T13:49:24.002Z,77.93
2022-12-31T13:50:30.780Z,78.27
2022-12-31T13:51:41.824Z,77.75
2022-12-31T13:52:46.946Z,78.39
2022-12-31T13:53:53.589Z,78.06
2022-12-31T13:55:00.830Z,77.82
2022-12-31T13:56:06.091Z,77.76
2022-12-31T13:57:13.893Z,78.13
2022-12-31T13:58:21.670Z,78.10
2022-12-31T13:59:29.168Z,78.25
2022-12-31T14:00:35.764Z,78.35
2022-12-31T14:01:42.057Z,78.39
2022-12-31T14:02:50.022Z,78.40
2022-12-31T14:03:59.750Z,78.13
2022-12-31T14:05:05.028Z,78.07
2022-12-31T14:06:12.354Z,78.08
2022-12-31T14:07:18.112Z,77.97
2022-12-31T14:08:20.901Z,78.39
2022-12-31T14:09:24.434Z,78.20
2022-12-31T14:10:37.064Z,78.20
2022-12-31T14:11:50.147Z,78.21
2022-12-31T14:12:54.783Z,78.72
2022-12-31T14:14:07.913Z,78.46
2022-12-31T14:15:15.577Z,78.90
2022-12-31T14:16:24.125Z,78.23
2022-12-31T14:17:32.914Z,78.59
2022-12-31T14:18:41.036Z,78.83
2022-12-31T14:19:58.075Z,78.84
2022-12-31T14:21:07.682Z,78.46
2022-12-31T14:22:15.918Z,79.11
2022-12-31T14:23:24.739Z,79.31
2022-12-31T14:24:35.908Z,79.04
2022-12-31T14:25:40.766Z,79.19
2022-12-31T14:26:45.145Z,79.09
2022-12-31T14:27:47.557Z,78.82
2022-12-31T14:28:55.897Z,79.05
2022-12-31T14:30:02.060Z,79.48
2022-12-31T14:31:12.014Z,79.37
2022-12-31T14:32:23.404Z,79.67
2022-12-31T14:33:40.776Z,79.09